Time;durP1;ratioP1;P1;durP2;ratioP2;P2;SDS_P1;SDS_P2;PMS_P1;PMS_P2;Temp;Humidity;BMP_temperature;BMP_pressure;BME280_temperature;BME280_humidity;BME280_pressure;Samples;Min_cycle;Max_cycle;Signal;HPM_P1;HPM_P2
2022/11/04 00:02:11;;;;;;;2.83;2.53;;;20.40;52.30;;;;;;5117708;28;20458;-80
2022/11/04 00:04:39;;;;;;;3.27;2.97;;;20.40;52.90;;;;;;5118151;28;20436;-82
2022/11/04 00:09:51;;;;;;;5.83;2.80;;;20.40;52.40;;;;;;5100071;28;20444;-82
2022/11/04 00:12:23;;;;;;;2.57;2.37;;;20.40;52.40;;;;;;5111620;28;20463;-83
2022/11/04 00:14:52;;;;;;;4.03;2.80;;;20.40;52.40;;;;;;5117245;28;20452;-82
2022/11/04 00:17:18;;;;;;;3.30;2.90;;;20.40;52.50;;;;;;5122089;28;20450;-83
2022/11/04 00:30:55;;;;;;;3.30;2.60;;;20.30;52.60;;;;;;5118498;28;20447;-82
2022/11/04 00:33:25;;;;;;;3.83;2.90;;;20.30;52.70;;;;;;5117948;28;20463;-82
2022/11/04 00:35:55;;;;;;;3.30;2.80;;;20.30;52.70;;;;;;5120505;28;20439;-83
2022/11/04 00:38:24;;;;;;;3.90;3.00;;;20.30;52.80;;;;;;5120759;28;20454;-82
2022/11/04 00:40:52;;;;;;;4.73;2.60;;;20.30;52.80;;;;;;5121371;28;20440;-82
2022/11/04 00:43:20;;;;;;;3.37;3.07;;;20.30;52.80;;;;;;5121317;28;20455;-82
2022/11/04 00:45:48;;;;;;;3.30;2.70;;;20.30;52.80;;;;;;5119787;28;20440;-82
2022/11/04 00:48:16;;;;;;;2.83;2.63;;;20.30;52.80;;;;;;5120203;28;20446;-81
2022/11/04 00:50:44;;;;;;;4.10;3.00;;;20.30;52.80;;;;;;5119409;28;20455;-81
2022/11/04 00:53:13;;;;;;;3.73;2.50;;;20.30;52.80;;;;;;5120273;28;20467;-82
2022/11/04 00:55:42;;;;;;;2.70;2.50;;;20.30;52.80;;;;;;5120314;28;20450;-81
2022/11/04 00:58:11;;;;;;;3.80;2.60;;;20.30;52.90;;;;;;5120400;28;20448;-81
2022/11/04 01:00:39;;;;;;;3.00;2.70;;;20.30;52.90;;;;;;5121422;28;20446;-80
2022/11/04 01:03:07;;;;;;;2.90;2.70;;;20.30;52.90;;;;;;5122181;28;20460;-82
2022/11/04 01:05:37;;;;;;;3.03;2.50;;;20.30;52.90;;;;;;5120411;28;20515;-81
2022/11/04 01:08:06;;;;;;;4.43;2.70;;;20.30;53.00;;;;;;5120191;28;20395;-82
2022/11/04 01:10:35;;;;;;;3.97;3.30;;;20.30;53.00;;;;;;5120011;28;21032;-81
2022/11/04 01:13:05;;;;;;;3.07;2.87;;;20.30;53.00;;;;;;5123023;27;20474;-82
2022/11/04 01:15:33;;;;;;;4.30;2.93;;;20.30;53.00;;;;;;5129419;28;20432;-80
2022/11/04 01:18:02;;;;;;;3.03;2.83;;;20.30;53.00;;;;;;5109027;28;20448;-80
2022/11/04 01:20:30;;;;;;;4.40;2.70;;;20.30;53.20;;;;;;5107904;28;20445;-81
2022/11/04 01:22:58;;;;;;;4.07;2.90;;;20.30;53.10;;;;;;5110729;28;20449;-81
2022/11/04 01:25:26;;;;;;;2.97;2.77;;;20.30;53.10;;;;;;5116338;28;20457;-81
2022/11/04 01:27:55;;;;;;;4.67;2.97;;;20.30;53.10;;;;;;5128223;28;20447;-80
2022/11/04 01:30:25;;;;;;;2.90;2.70;;;20.30;53.10;;;;;;5128087;28;20428;-80
2022/11/04 01:32:53;;;;;;;3.30;3.10;;;20.30;53.10;;;;;;5128198;28;20463;-80
2022/11/04 01:35:21;;;;;;;2.70;2.60;;;20.30;53.20;;;;;;5119236;28;20453;-81
2022/11/04 01:37:49;;;;;;;3.23;2.83;;;20.30;53.20;;;;;;5128407;28;20459;-81
2022/11/04 01:40:18;;;;;;;4.20;3.10;;;20.30;53.20;;;;;;5127559;28;20958;-81
2022/11/04 01:42:46;;;;;;;5.50;3.27;;;20.30;53.20;;;;;;5121473;28;20443;-81
2022/11/04 01:45:14;;;;;;;3.03;2.73;;;20.30;53.20;;;;;;5120485;28;20443;-80
2022/11/04 01:47:44;;;;;;;3.17;2.87;;;20.30;53.30;;;;;;5111807;28;20456;-81
2022/11/04 01:50:14;;;;;;;5.37;2.50;;;20.30;53.40;;;;;;5119664;28;20448;-81
2022/11/04 01:52:43;;;;;;;3.57;3.27;;;20.20;53.40;;;;;;5110234;27;20452;-81
2022/11/04 01:55:13;;;;;;;3.57;3.10;;;20.30;53.50;;;;;;5120669;28;20475;-81
2022/11/04 01:57:42;;;;;;;2.97;2.77;;;20.30;53.40;;;;;;5121520;28;20440;-80
2022/11/04 02:00:12;;;;;;;3.20;2.90;;;20.20;53.60;;;;;;5120905;28;20946;-81
2022/11/04 02:02:57;;;;;;;3.37;3.07;;;20.20;53.40;;;;;;5120396;28;20444;-80
2022/11/04 02:05:25;;;;;;;2.90;2.70;;;20.30;53.60;;;;;;5122928;27;20452;-82
2022/11/04 02:07:54;;;;;;;5.20;3.00;;;20.20;53.60;;;;;;5115246;28;20447;-81
2022/11/04 02:10:23;;;;;;;2.80;2.60;;;20.20;53.70;;;;;;5121036;28;20470;-81
2022/11/04 02:12:50;;;;;;;2.90;2.70;;;20.20;53.70;;;;;;5113029;28;20472;-81
2022/11/04 02:15:20;;;;;;;2.63;2.43;;;20.20;53.80;;;;;;5110684;28;20471;-82
2022/11/04 02:18:13;;;;;;;2.90;2.70;;;20.20;53.80;;;;;;5122151;27;20444;-81
2022/11/04 02:20:57;;;;;;;3.07;2.50;;;20.20;53.80;;;;;;5127924;27;20436;-82
2022/11/04 02:23:39;;;;;;;3.27;2.90;;;20.10;53.70;;;;;;5119306;27;20451;-82
2022/11/04 02:26:47;;;;;;;2.90;2.70;;;20.10;53.90;;;;;;5123471;27;20451;-82
2022/11/04 02:29:32;;;;;;;2.23;2.13;;;20.10;53.80;;;;;;5106632;27;20447;-81
2022/11/04 02:32:06;;;;;;;2.70;2.50;;;20.10;53.70;;;;;;5122026;27;20456;-82
2022/11/04 02:34:39;;;;;;;2.50;2.30;;;20.10;53.90;;;;;;5127956;27;20471;-83
2022/11/04 02:37:12;;;;;;;3.10;2.63;;;20.10;53.80;;;;;;5129738;27;20455;-83
2022/11/04 02:39:48;;;;;;;2.33;2.17;;;20.10;53.90;;;;;;5112874;27;20452;-79
2022/11/04 02:42:21;;;;;;;2.70;2.20;;;20.10;53.80;;;;;;5124997;27;20459;-83
2022/11/04 02:44:51;;;;;;;1.93;1.80;;;20.10;53.80;;;;;;5106920;28;20471;-83
2022/11/04 02:47:21;;;;;;;2.50;2.13;;;20.10;53.90;;;;;;5122836;27;20451;-82
2022/11/04 02:49:51;;;;;;;4.10;2.13;;;20.00;53.70;;;;;;5124700;27;20455;-83
2022/11/04 02:52:21;;;;;;;3.00;2.40;;;20.10;53.80;;;;;;5124012;27;20447;-83
2022/11/04 02:54:53;;;;;;;2.83;2.10;;;20.10;53.70;;;;;;5122870;27;20542;-82
2022/11/04 02:57:24;;;;;;;1.97;1.87;;;20.10;53.70;;;;;;5129660;27;20458;-83
2022/11/04 02:59:55;;;;;;;2.60;2.40;;;20.00;53.70;;;;;;5112929;28;20461;-82
2022/11/04 03:02:27;;;;;;;3.20;2.10;;;20.10;53.80;;;;;;5114660;27;20452;-82
2022/11/04 03:04:55;;;;;;;1.90;1.80;;;20.00;53.70;;;;;;5120866;27;20589;-82
2022/11/04 03:07:24;;;;;;;2.70;2.07;;;20.00;53.70;;;;;;5128544;27;20507;-82
2022/11/04 03:09:56;;;;;;;2.20;2.10;;;20.00;53.60;;;;;;5120852;27;20449;-82
2022/11/04 03:12:27;;;;;;;2.07;1.90;;;20.00;53.70;;;;;;5122064;27;20451;-82
2022/11/04 03:14:59;;;;;;;1.93;1.83;;;20.00;53.60;;;;;;5118956;27;20491;-82
2022/11/04 03:17:30;;;;;;;2.13;2.03;;;20.00;54.30;;;;;;5116067;28;20444;-82
2022/11/04 03:19:59;;;;;;;1.97;1.77;;;20.00;53.70;;;;;;5118403;28;20440;-82
2022/11/04 03:22:28;;;;;;;2.00;1.90;;;20.00;53.70;;;;;;5117984;28;20443;-82
2022/11/04 03:24:56;;;;;;;2.10;2.00;;;19.90;53.50;;;;;;5117954;27;20470;-82
2022/11/04 03:27:27;;;;;;;2.53;2.33;;;19.90;53.70;;;;;;5113277;27;20459;-82
2022/11/04 03:29:58;;;;;;;2.27;2.17;;;20.00;53.80;;;;;;5123221;27;20451;-82
2022/11/04 03:32:29;;;;;;;2.17;2.07;;;19.90;53.70;;;;;;5135049;27;20469;-82
2022/11/04 03:34:58;;;;;;;1.93;1.83;;;19.90;53.80;;;;;;5114777;27;20468;-81
2022/11/04 03:37:25;;;;;;;2.40;2.20;;;19.90;53.70;;;;;;5123986;28;20456;-81
2022/11/04 03:39:54;;;;;;;2.17;1.97;;;19.90;53.80;;;;;;5122718;28;20455;-80
2022/11/04 03:42:22;;;;;;;2.00;1.90;;;19.90;53.70;;;;;;5121487;27;20459;-81
2022/11/04 03:44:51;;;;;;;1.70;1.60;;;20.00;53.70;;;;;;5110061;28;20467;-81
2022/11/04 03:47:23;;;;;;;2.37;2.20;;;19.90;53.70;;;;;;5119980;28;20448;-81
2022/11/04 03:49:52;;;;;;;2.10;2.00;;;19.90;53.90;;;;;;5128400;27;20458;-79
2022/11/04 03:52:20;;;;;;;2.17;2.00;;;19.90;53.90;;;;;;5120446;27;20451;-79
2022/11/04 03:54:48;;;;;;;2.07;1.97;;;19.90;53.90;;;;;;5123958;27;20555;-79
2022/11/04 03:57:36;;;;;;;2.13;2.03;;;19.90;54.00;;;;;;5113249;27;20457;-80
2022/11/04 04:00:10;;;;;;;2.20;2.10;;;19.90;53.90;;;;;;5128797;27;20461;-80
2022/11/04 04:02:56;;;;;;;2.50;2.40;;;19.90;53.90;;;;;;5126213;27;20455;-81
2022/11/04 04:05:27;;;;;;;2.30;2.20;;;19.90;54.00;;;;;;5124107;27;20458;-83
2022/11/04 04:07:59;;;;;;;2.63;2.00;;;19.80;53.90;;;;;;5123102;27;20448;-82
2022/11/04 04:10:41;;;;;;;2.40;2.20;;;19.90;54.00;;;;;;5112794;27;20462;-82
2022/11/04 04:13:22;;;;;;;1.80;1.70;;;19.90;54.00;;;;;;5116917;28;20467;-81
2022/11/04 04:15:52;;;;;;;2.27;2.17;;;19.90;53.90;;;;;;5131207;27;20521;-83
2022/11/04 04:18:25;;;;;;;2.53;2.40;;;19.80;54.00;;;;;;5123707;27;20440;-83
2022/11/04 04:20:55;;;;;;;1.93;1.83;;;19.80;53.90;;;;;;5119934;27;20451;-83
2022/11/04 04:28:56;;;;;;;3.20;2.23;;;19.80;54.00;;;;;;5123091;27;20454;-82
2022/11/04 04:34:11;;;;;;;3.03;1.93;;;19.80;54.00;;;;;;5114267;27;20482;-83
2022/11/04 04:36:41;;;;;;;2.63;2.43;;;19.80;54.10;;;;;;5105455;28;21032;-82
2022/11/04 04:44:59;;;;;;;2.20;2.00;;;19.80;54.10;;;;;;5126768;27;20475;-82
2022/11/04 04:47:29;;;;;;;2.40;2.20;;;19.80;54.30;;;;;;5124846;27;20461;-83
2022/11/04 04:49:59;;;;;;;2.80;2.60;;;19.80;54.20;;;;;;5119185;27;20451;-82
2022/11/04 04:52:28;;;;;;;2.60;2.40;;;19.80;54.00;;;;;;5111840;28;20456;-83
2022/11/04 04:54:57;;;;;;;2.30;2.10;;;19.80;54.10;;;;;;5121680;27;20478;-82
2022/11/04 04:57:25;;;;;;;2.20;2.10;;;19.80;54.10;;;;;;5119810;27;20446;-83
2022/11/04 04:59:53;;;;;;;2.00;1.90;;;19.80;54.30;;;;;;5115139;27;20453;-83
2022/11/04 05:02:21;;;;;;;1.93;1.83;;;19.80;54.20;;;;;;5122047;27;20459;-83
2022/11/04 05:04:50;;;;;;;2.10;2.00;;;19.70;54.20;;;;;;5112662;27;20503;-83
2022/11/04 05:07:19;;;;;;;2.10;2.00;;;19.70;54.20;;;;;;5126801;27;20446;-83
2022/11/04 05:09:47;;;;;;;2.33;2.13;;;19.80;54.40;;;;;;5132735;27;20452;-82
2022/11/04 05:12:16;;;;;;;2.20;2.10;;;19.80;54.20;;;;;;5113645;28;20437;-83
2022/11/04 05:14:43;;;;;;;2.47;2.33;;;19.80;54.40;;;;;;5114644;27;20475;-82
2022/11/04 05:17:12;;;;;;;1.80;1.70;;;19.70;54.30;;;;;;5128994;27;20447;-83
2022/11/04 05:19:40;;;;;;;2.17;2.03;;;19.70;54.50;;;;;;5126656;27;20527;-83
2022/11/04 05:22:09;;;;;;;2.30;2.20;;;19.70;54.50;;;;;;5113009;28;20441;-83
2022/11/04 05:24:38;;;;;;;2.20;2.10;;;19.70;54.60;;;;;;5117217;27;20483;-82
2022/11/04 05:27:07;;;;;;;2.60;2.23;;;19.70;54.50;;;;;;5112487;28;20437;-82
2022/11/04 05:29:35;;;;;;;2.30;2.10;;;19.70;54.50;;;;;;5117296;27;20459;-83
2022/11/04 05:32:02;;;;;;;2.17;2.07;;;19.80;54.50;;;;;;5123379;27;20454;-83
2022/11/04 05:34:31;;;;;;;2.40;2.30;;;19.80;54.60;;;;;;5125418;27;20471;-83
2022/11/04 05:36:59;;;;;;;2.67;2.23;;;19.70;54.30;;;;;;5122415;27;20470;-83
2022/11/04 05:39:27;;;;;;;2.37;2.13;;;19.80;54.60;;;;;;5117756;27;20451;-81
2022/11/04 05:41:57;;;;;;;1.80;1.70;;;19.80;54.60;;;;;;5114542;28;20464;-82
2022/11/04 05:44:25;;;;;;;2.20;2.10;;;19.80;54.60;;;;;;5115124;27;20471;-83
2022/11/04 05:46:53;;;;;;;2.77;2.57;;;19.80;54.50;;;;;;5111059;27;20456;-82
2022/11/04 05:49:21;;;;;;;2.77;2.57;;;19.70;54.60;;;;;;5120142;27;20455;-84
2022/11/04 05:51:50;;;;;;;2.27;2.10;;;19.80;54.60;;;;;;5126316;27;20822;-82
2022/11/04 05:54:18;;;;;;;2.70;2.00;;;19.80;54.60;;;;;;5126233;27;20470;-83
2022/11/04 05:56:46;;;;;;;2.33;2.13;;;19.80;54.50;;;;;;5118140;28;20461;-84
2022/11/04 05:59:16;;;;;;;1.97;1.87;;;19.80;54.50;;;;;;5108202;27;20504;-82
2022/11/04 06:01:44;;;;;;;2.33;2.20;;;19.80;54.60;;;;;;5112162;28;20428;-82
2022/11/04 06:04:14;;;;;;;2.23;2.13;;;19.80;54.50;;;;;;5120983;27;20764;-82
2022/11/04 06:06:42;;;;;;;2.27;2.17;;;19.80;54.60;;;;;;5111009;27;20456;-82
2022/11/04 06:09:10;;;;;;;2.03;1.93;;;19.80;54.60;;;;;;5126355;27;20452;-83
2022/11/04 06:11:39;;;;;;;1.90;1.80;;;19.70;54.60;;;;;;5119319;28;20456;-83
2022/11/04 06:14:07;;;;;;;2.57;2.47;;;19.70;54.60;;;;;;5102084;28;20471;-83
2022/11/04 06:16:37;;;;;;;1.90;1.80;;;19.70;54.50;;;;;;5127383;27;20472;-83
2022/11/04 06:19:05;;;;;;;2.47;2.00;;;19.70;54.70;;;;;;5115727;27;20464;-83
2022/11/04 06:21:36;;;;;;;2.53;2.40;;;19.70;54.50;;;;;;5113424;27;20535;-83
2022/11/04 06:24:05;;;;;;;1.93;1.83;;;19.80;54.60;;;;;;5124683;27;20474;-81
2022/11/04 06:26:33;;;;;;;2.07;1.97;;;19.70;54.60;;;;;;5133023;27;20442;-83
2022/11/04 06:29:01;;;;;;;2.20;2.10;;;19.70;54.60;;;;;;5122653;27;20452;-84
2022/11/04 06:31:29;;;;;;;2.10;2.00;;;19.70;54.60;;;;;;5108217;28;20459;-83
2022/11/04 06:33:59;;;;;;;2.00;1.90;;;19.70;55.30;;;;;;5120794;27;20463;-83
2022/11/04 06:36:27;;;;;;;1.87;1.77;;;19.70;54.70;;;;;;5116584;27;20467;-83
2022/11/04 06:38:55;;;;;;;2.50;2.30;;;19.70;54.70;;;;;;5112982;27;20447;-83
2022/11/04 06:41:30;;;;;;;2.50;2.40;;;19.70;54.70;;;;;;5120743;28;20500;-83
2022/11/04 06:43:59;;;;;;;2.47;2.27;;;19.70;54.70;;;;;;5130520;27;20464;-83
2022/11/04 06:46:28;;;;;;;2.00;1.90;;;19.70;54.70;;;;;;5123969;27;20451;-83
2022/11/04 06:48:56;;;;;;;2.10;2.00;;;19.70;54.70;;;;;;5118246;27;20448;-84
2022/11/04 06:51:25;;;;;;;2.00;1.80;;;19.70;54.70;;;;;;5120614;27;20451;-83
2022/11/04 06:53:53;;;;;;;2.10;2.00;;;19.70;54.70;;;;;;5105665;27;20547;-83
2022/11/04 06:56:22;;;;;;;2.20;2.10;;;19.70;54.80;;;;;;5110007;27;20468;-83
2022/11/04 06:58:50;;;;;;;2.20;2.03;;;19.70;54.80;;;;;;5112360;28;20440;-84
2022/11/04 07:01:18;;;;;;;1.90;1.80;;;19.70;54.70;;;;;;5128254;27;20812;-83
2022/11/04 07:03:49;;;;;;;2.23;2.13;;;19.70;54.90;;;;;;5109336;27;20472;-83
2022/11/04 07:06:17;;;;;;;2.40;2.20;;;19.70;54.80;;;;;;5113293;27;20488;-83
2022/11/04 07:08:46;;;;;;;1.90;1.80;;;19.70;54.80;;;;;;5113846;27;20491;-83
2022/11/04 07:11:14;;;;;;;2.10;2.00;;;19.70;54.70;;;;;;5105779;28;20502;-83
2022/11/04 07:13:42;;;;;;;2.40;2.30;;;19.70;54.80;;;;;;5122361;27;20479;-84
2022/11/04 07:16:10;;;;;;;3.00;2.07;;;19.70;54.60;;;;;;5114734;27;20467;-83
2022/11/04 07:18:38;;;;;;;1.93;1.83;;;19.70;54.80;;;;;;5107519;28;20528;-84
2022/11/04 07:21:07;;;;;;;2.43;2.23;;;19.70;54.80;;;;;;5122634;27;20459;-83
2022/11/04 07:23:37;;;;;;;2.10;2.00;;;19.80;54.80;;;;;;5116752;28;20457;-82
2022/11/04 07:26:07;;;;;;;2.57;2.37;;;19.70;54.70;;;;;;5121693;27;20451;-83
2022/11/04 07:28:35;;;;;;;2.30;2.20;;;19.80;54.90;;;;;;5123455;27;20460;-84
2022/11/04 07:31:04;;;;;;;1.90;1.80;;;19.70;54.80;;;;;;5124460;27;20454;-82
2022/11/04 07:33:33;;;;;;;2.40;2.20;;;19.80;54.80;;;;;;5114729;28;20492;-84
2022/11/04 07:36:04;;;;;;;2.50;2.40;;;19.80;54.70;;;;;;5115913;27;20449;-81
2022/11/04 07:38:32;;;;;;;2.53;2.33;;;19.90;54.70;;;;;;5118476;28;20432;-83
2022/11/04 07:41:01;;;;;;;2.50;2.30;;;19.80;54.70;;;;;;5122497;28;20505;-83
2022/11/04 07:43:31;;;;;;;2.00;1.90;;;19.80;54.70;;;;;;5111375;28;20485;-83
2022/11/04 07:46:00;;;;;;;2.10;2.00;;;19.80;54.80;;;;;;5120544;28;20458;-83
2022/11/04 07:48:28;;;;;;;2.40;2.30;;;19.80;54.60;;;;;;5114274;28;20492;-83
2022/11/04 07:50:57;;;;;;;2.10;2.00;;;19.80;54.60;;;;;;5113028;28;20454;-83
2022/11/04 07:53:25;;;;;;;2.03;1.93;;;19.80;54.60;;;;;;5119648;28;20473;-82
2022/11/04 07:55:53;;;;;;;2.50;2.30;;;19.90;54.80;;;;;;5118307;28;20450;-82
2022/11/04 07:58:22;;;;;;;2.53;2.33;;;19.90;54.70;;;;;;5113212;28;20482;-82
2022/11/04 08:00:57;;;;;;;2.30;2.10;;;19.90;54.60;;;;;;5117400;28;20463;-82
2022/11/04 08:03:25;;;;;;;1.90;1.80;;;19.90;54.70;;;;;;5096045;28;20464;-82
2022/11/04 08:05:56;;;;;;;2.10;2.00;;;20.00;54.80;;;;;;5104273;28;20542;-82
2022/11/04 08:08:24;;;;;;;2.13;2.03;;;20.00;54.70;;;;;;5114030;28;20436;-83
2022/11/04 08:10:55;;;;;;;2.03;1.93;;;20.00;54.60;;;;;;5107184;28;20463;-82
2022/11/04 08:13:23;;;;;;;2.30;2.20;;;20.00;54.60;;;;;;5126152;27;20473;-83
2022/11/04 08:15:52;;;;;;;2.53;2.33;;;20.00;54.60;;;;;;5120930;28;20815;-82
2022/11/04 08:18:20;;;;;;;2.53;2.33;;;20.10;54.80;;;;;;5112762;28;20482;-83
2022/11/04 08:20:49;;;;;;;2.37;2.27;;;20.10;54.70;;;;;;5112732;28;20447;-83
2022/11/04 08:23:17;;;;;;;2.00;1.90;;;20.10;54.70;;;;;;5109417;28;20479;-82
2022/11/04 08:25:46;;;;;;;2.50;2.40;;;20.00;54.70;;;;;;5127585;28;20443;-82
2022/11/04 08:28:16;;;;;;;1.93;1.83;;;20.10;54.60;;;;;;5118708;28;20459;-83
2022/11/04 08:30:54;;;;;;;2.20;2.10;;;20.10;54.70;;;;;;5126691;27;20548;-83
2022/11/04 08:33:22;;;;;;;2.00;1.90;;;20.20;54.80;;;;;;5113274;27;20482;-83
2022/11/04 08:35:50;;;;;;;2.10;2.00;;;20.30;54.80;;;;;;5124917;27;20455;-82
2022/11/04 08:38:18;;;;;;;2.43;2.33;;;20.40;54.80;;;;;;5124897;27;20494;-82
2022/11/04 08:40:46;;;;;;;1.87;1.77;;;20.60;54.70;;;;;;5116591;28;20445;-83
2022/11/04 08:43:14;;;;;;;2.40;2.20;;;20.70;54.60;;;;;;5106978;28;20563;-82
2022/11/04 08:45:44;;;;;;;2.40;2.20;;;20.90;54.70;;;;;;5119824;28;20440;-83
2022/11/04 08:48:14;;;;;;;2.00;1.80;;;21.20;55.00;;;;;;5122894;28;20443;-83
2022/11/04 08:50:42;;;;;;;2.43;2.23;;;21.40;54.80;;;;;;5121855;28;20451;-83
2022/11/04 08:53:10;;;;;;;2.23;2.13;;;21.70;54.60;;;;;;5121247;28;20439;-83
2022/11/04 08:55:39;;;;;;;2.07;1.97;;;22.00;54.60;;;;;;5120417;28;20422;-83
2022/11/04 08:58:07;;;;;;;2.27;2.17;;;22.20;54.40;;;;;;5119779;28;20475;-83
2022/11/04 09:00:36;;;;;;;2.50;2.30;;;22.30;54.10;;;;;;5119708;28;20447;-83
2022/11/04 09:03:04;;;;;;;2.20;2.07;;;22.60;54.10;;;;;;5123437;28;20451;-83
2022/11/04 09:05:33;;;;;;;2.20;2.10;;;22.80;54.10;;;;;;5124487;28;20450;-84
2022/11/04 09:08:01;;;;;;;2.20;2.10;;;22.90;53.80;;;;;;5122719;28;20447;-83
2022/11/04 09:10:29;;;;;;;2.20;2.10;;;23.10;53.90;;;;;;5121568;28;20462;-83
2022/11/04 09:12:57;;;;;;;1.90;1.80;;;23.20;53.80;;;;;;5120678;28;20468;-83
2022/11/04 09:15:25;;;;;;;2.20;2.07;;;23.30;53.80;;;;;;5118769;28;20452;-83
2022/11/04 09:17:54;;;;;;;2.20;2.10;;;23.50;53.90;;;;;;5119437;28;20478;-81
2022/11/04 09:20:22;;;;;;;1.93;1.83;;;23.80;54.10;;;;;;5120440;28;20418;-83
2022/11/04 09:22:53;;;;;;;2.07;1.97;;;24.00;53.90;;;;;;5123010;28;20467;-83
2022/11/04 09:25:21;;;;;;;2.23;2.13;;;24.30;53.70;;;;;;5123633;28;20428;-82
2022/11/04 09:27:49;;;;;;;2.87;1.73;;;24.40;53.20;;;;;;5118831;27;20433;-83
2022/11/04 09:30:17;;;;;;;1.90;1.80;;;24.50;53.30;;;;;;5119568;27;20426;-82
2022/11/04 09:32:45;;;;;;;2.20;2.10;;;24.60;53.40;;;;;;5120056;28;20434;-83
2022/11/04 09:35:19;;;;;;;2.33;2.20;;;24.90;53.20;;;;;;5118485;27;20454;-81
2022/11/04 09:37:49;;;;;;;2.03;1.93;;;25.10;52.70;;;;;;5120266;28;20468;-82
2022/11/04 09:40:20;;;;;;;2.47;2.37;;;25.20;52.40;;;;;;5121520;28;20436;-82
2022/11/04 09:42:57;;;;;;;2.13;2.03;;;25.40;52.40;;;;;;5120748;28;20450;-82
2022/11/04 09:45:27;;;;;;;2.00;1.90;;;25.40;51.70;;;;;;5118550;28;20462;-82
2022/11/04 09:47:56;;;;;;;3.33;2.00;;;25.30;51.60;;;;;;5111948;28;20433;-81
2022/11/04 09:50:26;;;;;;;2.10;2.00;;;25.20;52.20;;;;;;5119979;28;20451;-80
2022/11/04 09:52:57;;;;;;;3.83;2.50;;;25.10;51.70;;;;;;5117749;27;20526;-82
2022/11/04 09:55:29;;;;;;;2.20;2.10;;;25.00;51.70;;;;;;5117763;28;20456;-84
2022/11/04 09:57:57;;;;;;;2.10;2.00;;;24.90;51.50;;;;;;5121808;27;20434;-84
2022/11/04 10:00:26;;;;;;;2.30;2.10;;;24.70;51.60;;;;;;5120953;28;20421;-82
2022/11/04 10:02:58;;;;;;;2.40;2.23;;;24.70;52.00;;;;;;5121724;27;20501;-82
2022/11/04 10:05:37;;;;;;;4.10;2.70;;;25.00;52.60;;;;;;5112575;27;20422;-84
2022/11/04 10:08:20;;;;;;;2.40;2.30;;;25.40;51.90;;;;;;5121199;27;20421;-83
2022/11/04 10:10:53;;;;;;;2.70;2.60;;;25.80;51.40;;;;;;5117245;28;20422;-83
2022/11/04 10:13:25;;;;;;;3.17;2.70;;;26.20;50.90;;;;;;5120223;28;20438;-81
2022/11/04 10:16:05;;;;;;;2.93;2.73;;;26.20;50.10;;;;;;5119961;28;20428;-81
2022/11/04 10:18:45;;;;;;;3.03;2.83;;;26.20;50.30;;;;;;5120358;27;20475;-82
2022/11/04 10:21:20;;;;;;;2.70;2.50;;;26.30;50.30;;;;;;5118238;28;20422;-81
2022/11/04 10:23:56;;;;;;;2.67;2.57;;;26.50;50.00;;;;;;5112259;28;20434;-82
2022/11/04 10:26:28;;;;;;;2.83;2.63;;;26.60;49.80;;;;;;5118076;27;20451;-82
2022/11/04 10:28:57;;;;;;;3.43;3.07;;;26.60;49.80;;;;;;5118943;27;20426;-83
2022/11/04 10:31:25;;;;;;;3.30;3.10;;;26.60;49.70;;;;;;5131506;27;20426;-82
2022/11/04 10:33:55;;;;;;;3.73;3.07;;;27.00;49.60;;;;;;5118036;28;20446;-82
2022/11/04 10:36:22;;;;;;;4.60;3.60;;;27.50;49.20;;;;;;5114940;28;20430;-83
2022/11/04 10:38:51;;;;;;;3.33;3.00;;;27.70;48.70;;;;;;5118971;27;20442;-83
2022/11/04 10:41:25;;;;;;;3.83;3.10;;;27.80;47.90;;;;;;5122141;27;20417;-80
2022/11/04 10:43:54;;;;;;;3.67;3.37;;;27.70;48.10;;;;;;5123455;27;20436;-81
2022/11/04 10:46:41;;;;;;;3.63;3.43;;;27.70;48.10;;;;;;5118176;28;20427;-81
2022/11/04 10:49:40;;;;;;;3.00;2.80;;;27.70;47.80;;;;;;5118079;28;20431;-81
2022/11/04 10:52:28;;;;;;;3.47;3.17;;;27.70;47.40;;;;;;5116700;27;20515;-82
2022/11/04 10:54:56;;;;;;;3.20;3.00;;;27.60;47.30;;;;;;5119897;28;20452;-81
2022/11/04 10:57:25;;;;;;;3.30;3.10;;;27.30;47.20;;;;;;5115701;28;20452;-81
2022/11/04 10:59:54;;;;;;;3.67;3.40;;;27.10;47.70;;;;;;5116681;28;20468;-82
2022/11/04 11:02:46;;;;;;;3.77;3.47;;;27.00;47.80;;;;;;5118182;28;20878;-81
2022/11/04 11:05:21;;;;;;;3.40;3.10;;;26.90;48.00;;;;;;5096615;28;20440;-81
2022/11/04 11:07:49;;;;;;;3.63;3.40;;;26.80;47.80;;;;;;5118019;28;20439;-81
2022/11/04 11:10:18;;;;;;;3.83;3.47;;;26.90;48.20;;;;;;5118636;28;20414;-82
2022/11/04 11:12:56;;;;;;;3.37;3.10;;;27.10;48.00;;;;;;5113937;28;20444;-82
2022/11/04 11:15:33;;;;;;;3.80;3.50;;;27.40;48.20;;;;;;5115398;28;20427;-84
2022/11/04 11:18:14;;;;;;;3.60;3.30;;;27.80;47.60;;;;;;5115844;28;20424;-84
2022/11/04 11:20:42;;;;;;;3.53;3.23;;;28.30;47.10;;;;;;5119097;27;20438;-82
2022/11/04 11:23:32;;;;;;;3.20;3.00;;;28.80;46.40;;;;;;5118549;27;20442;-82
2022/11/04 11:26:00;;;;;;;3.60;3.37;;;29.40;45.60;;;;;;5113143;27;20429;-81
2022/11/04 11:28:30;;;;;;;3.20;3.00;;;29.70;45.00;;;;;;5126704;27;20443;-82
2022/11/04 11:30:58;;;;;;;3.47;3.20;;;30.20;44.70;;;;;;5123492;28;20451;-80
2022/11/04 11:33:28;;;;;;;3.33;3.13;;;30.60;43.90;;;;;;5121666;28;20459;-80
2022/11/04 11:35:58;;;;;;;3.80;3.40;;;31.00;43.50;;;;;;5120685;28;20440;-82
2022/11/04 11:38:27;;;;;;;3.83;3.57;;;31.00;42.50;;;;;;5118108;28;20464;-82
2022/11/04 11:41:05;;;;;;;3.40;3.20;;;30.90;42.60;;;;;;5124985;28;20448;-82
2022/11/04 11:43:53;;;;;;;3.70;3.50;;;31.00;42.90;;;;;;5116225;28;20471;-81
2022/11/04 11:46:22;;;;;;;4.00;3.70;;;31.20;42.80;;;;;;5124040;28;20411;-81
2022/11/04 11:48:51;;;;;;;4.00;3.47;;;31.50;42.60;;;;;;5121053;28;20442;-82
2022/11/04 11:51:24;;;;;;;3.87;3.47;;;31.80;42.40;;;;;;5124203;28;20534;-82
2022/11/04 11:54:22;;;;;;;3.80;3.50;;;31.80;42.00;;;;;;5119589;28;20459;-82
2022/11/04 11:56:51;;;;;;;3.40;3.20;;;32.10;42.00;;;;;;5115735;28;20970;-82
2022/11/04 11:59:44;;;;;;;3.73;3.53;;;32.40;41.50;;;;;;5127308;28;20488;-82
2022/11/04 12:02:34;;;;;;;3.73;3.53;;;32.70;41.10;;;;;;5117408;28;20432;-80
2022/11/04 12:05:02;;;;;;;3.30;3.20;;;33.10;40.70;;;;;;5118083;28;20440;-82
2022/11/04 12:07:52;;;;;;;3.57;3.33;;;33.00;39.80;;;;;;5120044;28;20431;-82
2022/11/04 12:10:42;;;;;;;3.70;3.40;;;33.00;40.70;;;;;;5132734;27;20438;-82
2022/11/04 12:13:20;;;;;;;3.07;2.97;;;33.20;40.10;;;;;;5128074;27;20451;-81
2022/11/04 12:16:08;;;;;;;3.70;3.50;;;33.40;40.00;;;;;;5115737;28;20439;-80
2022/11/04 12:18:56;;;;;;;3.33;3.03;;;33.50;39.30;;;;;;5120036;27;20443;-81
2022/11/04 12:21:31;;;;;;;4.23;3.30;;;33.00;39.30;;;;;;5119939;27;20455;-78
2022/11/04 12:24:02;;;;;;;3.50;3.30;;;32.50;39.80;;;;;;5117645;27;20490;-81
2022/11/04 12:26:34;;;;;;;3.00;2.90;;;32.20;40.10;;;;;;5119935;28;20428;-80
2022/11/04 12:29:10;;;;;;;5.20;3.73;;;32.00;40.90;;;;;;5120652;28;20454;-80
2022/11/04 12:31:44;;;;;;;3.50;3.30;;;32.40;41.10;;;;;;5121250;28;20436;-81
2022/11/04 12:34:17;;;;;;;3.70;3.50;;;32.60;40.60;;;;;;5121371;28;20491;-81
2022/11/04 12:36:59;;;;;;;3.80;3.60;;;32.30;40.00;;;;;;5118769;28;20444;-80
2022/11/04 12:39:48;;;;;;;4.10;3.80;;;32.00;40.20;;;;;;5118240;28;20478;-81
2022/11/04 12:42:20;;;;;;;4.13;3.67;;;31.60;40.60;;;;;;5116331;28;20455;-80
2022/11/04 12:45:02;;;;;;;4.03;3.80;;;31.70;41.70;;;;;;5122186;28;20512;-80
2022/11/04 12:47:35;;;;;;;4.93;4.53;;;31.90;41.10;;;;;;5120081;28;20446;-80
2022/11/04 12:50:26;;;;;;;4.43;4.07;;;32.30;40.80;;;;;;5120715;28;20430;-79
2022/11/04 12:53:14;;;;;;;4.90;3.97;;;32.70;39.90;;;;;;5120080;28;20452;-81
2022/11/04 12:55:45;;;;;;;4.10;3.80;;;32.70;39.50;;;;;;5123290;28;20424;-79
2022/11/04 12:58:23;;;;;;;4.53;4.23;;;32.40;39.60;;;;;;5122124;28;20423;-81
2022/11/04 13:00:52;;;;;;;3.97;3.77;;;32.00;39.60;;;;;;5121268;27;20475;-80
2022/11/04 13:03:30;;;;;;;4.77;4.23;;;31.70;39.90;;;;;;5120429;28;20466;-80
2022/11/04 13:06:00;;;;;;;3.80;3.60;;;31.80;40.70;;;;;;5120630;28;20424;-80
2022/11/04 13:08:30;;;;;;;4.40;4.10;;;32.10;40.60;;;;;;5118955;28;20440;-80
2022/11/04 13:11:01;;;;;;;4.87;4.47;;;32.40;39.80;;;;;;5121752;28;20455;-80
2022/11/04 13:13:32;;;;;;;4.80;4.40;;;32.00;39.40;;;;;;5117403;28;20460;-80
2022/11/04 13:16:02;;;;;;;5.23;4.80;;;31.80;39.80;;;;;;5122678;27;20436;-80
2022/11/04 13:18:35;;;;;;;4.83;4.37;;;31.90;40.50;;;;;;5121536;28;20444;-82
2022/11/04 13:21:04;;;;;;;5.80;5.30;;;32.10;40.30;;;;;;5121780;28;20471;-81
2022/11/04 13:23:37;;;;;;;4.87;4.47;;;31.90;39.70;;;;;;5120260;28;20486;-82
2022/11/04 13:26:05;;;;;;;6.10;5.50;;;31.80;39.70;;;;;;5121759;28;20514;-82
2022/11/04 13:28:36;;;;;;;6.10;5.50;;;31.50;40.10;;;;;;5121994;28;20462;-82
2022/11/04 13:31:05;;;;;;;6.13;5.63;;;31.80;40.50;;;;;;5120471;28;20432;-82
2022/11/04 13:33:38;;;;;;;5.83;5.40;;;31.80;40.10;;;;;;5119422;28;20478;-82
2022/11/04 13:36:12;;;;;;;5.70;5.20;;;31.90;39.60;;;;;;5116564;28;20448;-82
2022/11/04 13:38:42;;;;;;;6.30;5.70;;;31.80;39.60;;;;;;5121273;28;20434;-82